Time;durP1;ratioP1;P1;durP2;ratioP2;P2;SDS_P1;SDS_P2;PMS_P1;PMS_P2;Temp;Humidity;BMP_temperature;BMP_pressure;BME280_temperature;BME280_humidity;BME280_pressure;Samples;Min_cycle;Max_cycle;Signal;HPM_P1;HPM_P2
2023/02/23 00:00:22;;;;;;;25.92;12.43;;;;;;;5.06;100.00;97355.53;5130938;27;20030;-76
2023/02/23 00:02:48;;;;;;;21.85;10.35;;;;;;;4.98;100.00;97357.66;5142212;27;20486;-76
2023/02/23 00:05:18;;;;;;;27.77;11.50;;;;;;;4.83;100.00;97353.84;5132000;27;20027;-76
2023/02/23 00:07:44;;;;;;;25.20;10.48;;;;;;;4.82;100.00;97351.28;5147892;27;20463;-77
2023/02/23 00:10:14;;;;;;;21.38;10.95;;;;;;;4.89;100.00;97352.75;5130624;27;20026;-76
2023/02/23 00:12:40;;;;;;;21.67;10.65;;;;;;;4.90;100.00;97359.75;5147890;27;20102;-77
2023/02/23 00:15:07;;;;;;;23.48;10.27;;;;;;;4.93;100.00;97349.88;5104338;28;20051;-77
2023/02/23 00:17:35;;;;;;;21.05;11.13;;;;;;;5.04;100.00;97356.53;5113823;28;20478;-77
2023/02/23 00:20:08;;;;;;;30.90;12.77;;;;;;;5.07;100.00;97356.41;5102355;28;20420;-77
2023/02/23 00:22:34;;;;;;;31.33;14.60;;;;;;;5.04;100.00;97348.56;5097064;28;20122;-77
2023/02/23 00:24:59;;;;;;;27.05;13.20;;;;;;;5.10;100.00;97350.97;5101312;28;20125;-76
2023/02/23 00:27:25;;;;;;;25.95;12.25;;;;;;;5.13;100.00;97350.81;5130479;27;20027;-76
2023/02/23 00:29:51;;;;;;;26.45;11.60;;;;;;;5.05;100.00;97344.97;5113109;28;20113;-75
2023/02/23 00:32:18;;;;;;;24.05;11.32;;;;;;;5.10;100.00;97350.97;5120436;28;20074;-76
2023/02/23 00:34:48;;;;;;;29.52;12.00;;;;;;;5.08;100.00;97356.31;5113382;28;20023;-76
2023/02/23 00:37:14;;;;;;;23.75;11.35;;;;;;;4.82;100.00;97341.56;5113802;28;20061;-75
2023/02/23 00:39:40;;;;;;;30.02;12.75;;;;;;;4.71;100.00;97362.31;5147581;27;20038;-76
2023/02/23 00:42:06;;;;;;;31.17;14.48;;;;;;;4.60;100.00;97359.25;5133552;27;20031;-77
2023/02/23 00:44:32;;;;;;;28.13;12.40;;;;;;;4.65;100.00;97346.69;5125774;27;20037;-75
2023/02/23 00:46:59;;;;;;;26.98;11.70;;;;;;;4.53;100.00;97354.28;5100437;27;20027;-76
2023/02/23 00:49:25;;;;;;;22.88;10.95;;;;;;;4.45;100.00;97362.53;5115247;27;20155;-76
2023/02/23 00:51:52;;;;;;;18.45;8.93;;;;;;;4.33;100.00;97353.31;5117410;27;20045;-76
2023/02/23 00:54:18;;;;;;;17.52;8.07;;;;;;;4.31;100.00;97359.56;5134114;27;20026;-75
2023/02/23 00:56:45;;;;;;;15.38;8.15;;;;;;;4.31;100.00;97354.28;5107819;27;20482;-75
2023/02/23 00:59:11;;;;;;;22.52;9.60;;;;;;;4.28;100.00;97354.41;5116922;27;20052;-76
2023/02/23 01:01:37;;;;;;;25.50;10.32;;;;;;;4.30;100.00;97353.44;5116931;27;20015;-76
2023/02/23 01:04:04;;;;;;;21.88;9.85;;;;;;;4.34;100.00;97364.75;5116721;27;20118;-76
2023/02/23 01:06:31;;;;;;;24.08;11.23;;;;;;;4.42;100.00;97353.84;5109174;27;20031;-76
2023/02/23 01:08:56;;;;;;;25.98;10.85;;;;;;;4.42;100.00;97354.72;5116874;27;20406;-76
2023/02/23 01:11:26;;;;;;;25.65;10.48;;;;;;;4.45;100.00;97359.91;5150819;27;20023;-77
2023/02/23 01:13:55;;;;;;;23.00;10.18;;;;;;;4.33;100.00;97355.09;5107429;27;20037;-77
2023/02/23 01:16:26;;;;;;;23.20;11.20;;;;;;;4.37;100.00;97354.91;5107408;27;20570;-77
2023/02/23 01:18:53;;;;;;;25.08;11.20;;;;;;;4.47;100.00;97365.09;5117028;27;20042;-76
2023/02/23 01:21:23;;;;;;;23.92;10.77;;;;;;;4.36;100.00;97349.69;5100224;27;20167;-76
2023/02/23 01:23:49;;;;;;;20.13;10.05;;;;;;;4.25;100.00;97347.44;5099497;27;20035;-76
2023/02/23 01:26:22;;;;;;;23.25;10.00;;;;;;;4.28;100.00;97354.41;5131770;27;20031;-76
2023/02/23 01:28:53;;;;;;;21.33;10.45;;;;;;;4.28;100.00;97349.09;5125247;27;20509;-76
2023/02/23 01:31:20;;;;;;;22.75;10.52;;;;;;;4.27;100.00;97345.63;5099799;27;20402;-76
2023/02/23 01:33:46;;;;;;;23.10;10.80;;;;;;;4.32;100.00;97353.38;5099539;27;20031;-76
2023/02/23 01:36:12;;;;;;;26.40;12.55;;;;;;;4.35;100.00;97346.16;5116296;27;20099;-75
2023/02/23 01:38:38;;;;;;;27.25;11.85;;;;;;;4.38;100.00;97351.34;5116254;27;20030;-75
2023/02/23 01:41:05;;;;;;;22.52;10.85;;;;;;;4.35;100.00;97347.94;5133415;27;20075;-75
2023/02/23 01:43:31;;;;;;;24.35;12.10;;;;;;;4.46;100.00;97345.72;5116458;27;20031;-75
2023/02/23 01:45:57;;;;;;;26.75;12.18;;;;;;;4.42;100.00;97341.47;5117078;27;20577;-76
2023/02/23 01:48:26;;;;;;;31.42;12.93;;;;;;;4.48;100.00;97351.81;5167901;27;20117;-76
2023/02/23 01:50:57;;;;;;;33.17;14.57;;;;;;;4.39;100.00;97336.31;5098900;27;20083;-76
2023/02/23 01:53:24;;;;;;;27.20;12.20;;;;;;;4.43;100.00;97343.19;5115892;27;20047;-76
2023/02/23 01:55:53;;;;;;;32.08;12.95;;;;;;;4.41;100.00;97345.03;5116074;27;20110;-76
2023/02/23 01:58:20;;;;;;;30.98;11.95;;;;;;;4.36;100.00;97342.59;5099048;27;20027;-77
2023/02/23 02:00:53;;;;;;;26.30;12.18;;;;;;;4.18;100.00;97339.84;5123264;27;20027;-75
2023/02/23 02:03:22;;;;;;;;;;;;;;;4.39;100.00;97357.50;5133359;27;20387;-75
2023/02/23 02:05:48;;;;;;;27.38;13.00;;;;;;;4.37;100.00;97352.25;5125339;27;19922;-76
2023/02/23 02:08:14;;;;;;;27.13;11.70;;;;;;;4.28;100.00;97343.81;5104665;27;20038;-76
2023/02/23 02:10:43;;;;;;;23.65;12.10;;;;;;;4.29;100.00;97337.59;5113250;27;20509;-76
2023/02/23 02:13:13;;;;;;;24.00;11.93;;;;;;;4.33;100.00;97345.38;5134440;27;20160;-76
2023/02/23 02:15:58;;;;;;;22.88;11.57;;;;;;;4.14;100.00;97340.88;5104685;27;20023;-78
2023/02/23 02:18:59;;;;;;;21.33;10.32;;;;;;;4.11;100.00;97344.50;5132818;27;20496;-77
2023/02/23 02:21:38;;;;;;;18.50;9.27;;;;;;;4.26;100.00;97348.31;5129793;27;20039;-77
2023/02/23 02:24:41;;;;;;;19.65;10.43;;;;;;;4.27;100.00;97347.41;5132514;27;20058;-77
2023/02/23 02:27:13;;;;;;;19.08;9.18;;;;;;;4.07;100.00;97336.72;5117356;27;20084;-77
2023/02/23 02:29:50;;;;;;;21.50;9.63;;;;;;;4.15;100.00;97350.53;5126707;27;20031;-78
2023/02/23 02:32:46;;;;;;;23.55;10.63;;;;;;;4.07;100.00;97339.38;5133702;27;20022;-76
2023/02/23 02:35:26;;;;;;;23.65;12.07;;;;;;;3.97;100.00;97344.16;5115531;27;20075;-77
2023/02/23 02:38:03;;;;;;;25.67;12.00;;;;;;;3.99;100.00;97363.50;5133341;27;20101;-77
2023/02/23 02:40:52;;;;;;;25.40;12.40;;;;;;;3.99;100.00;97350.28;5123721;27;20023;-77
2023/02/23 02:43:39;;;;;;;27.27;13.05;;;;;;;3.95;100.00;97361.03;5099388;27;20027;-77
2023/02/23 02:46:08;;;;;;;21.30;11.30;;;;;;;3.99;100.00;97360.88;5098266;27;20031;-77
2023/02/23 02:49:02;;;;;;;27.85;12.30;;;;;;;3.89;100.00;97356.84;5127664;27;20060;-76
2023/02/23 02:51:38;;;;;;;23.23;11.45;;;;;;;3.87;100.00;97356.06;5149274;27;20046;-76
2023/02/23 02:54:28;;;;;;;25.13;11.95;;;;;;;3.90;100.00;97369.16;5123543;27;20030;-77
2023/02/23 02:56:56;;;;;;;25.65;12.80;;;;;;;3.75;100.00;97360.00;5133000;27;20080;-77
2023/02/23 04:17:55;;;;;;;239.75;58.75;;;;;;;3.05;100.00;97414.56;5127119;27;20467;-77
2023/02/23 04:20:24;;;;;;;120.57;35.60;;;;;;;3.00;100.00;97421.81;5114539;27;20048;-77
2023/02/23 04:22:50;;;;;;;39.50;16.65;;;;;;;2.89;100.00;97421.28;5094468;28;20529;-75
2023/02/23 04:25:21;;;;;;;41.80;16.75;;;;;;;2.86;100.00;97410.81;5076943;28;20028;-77
2023/02/23 04:27:48;;;;;;;28.85;12.50;;;;;;;2.82;100.00;97417.16;5078151;28;20088;-76
2023/02/23 04:30:47;;;;;;;31.88;13.60;;;;;;;2.70;100.00;97407.00;5077533;28;20027;-79
2023/02/23 04:33:13;;;;;;;34.80;15.50;;;;;;;2.57;100.00;97413.59;5095350;28;20046;-77
2023/02/23 04:35:44;;;;;;;37.15;14.85;;;;;;;2.55;100.00;97421.53;5093881;28;20020;-78
2023/02/23 04:38:12;;;;;;;32.25;14.77;;;;;;;2.54;100.00;97432.16;5091182;28;20166;-76
2023/02/23 04:40:37;;;;;;;36.72;15.82;;;;;;;2.45;100.00;97428.06;5076721;28;20119;-76
2023/02/23 04:43:03;;;;;;;32.53;14.35;;;;;;;2.43;100.00;97437.78;5093761;28;20108;-76
2023/02/23 04:45:29;;;;;;;27.38;13.30;;;;;;;2.36;100.00;97445.94;5095130;28;20445;-79
2023/02/23 04:47:55;;;;;;;28.73;11.55;;;;;;;2.36;100.00;97443.31;5076689;28;20088;-78
2023/02/23 04:50:20;;;;;;;27.30;12.35;;;;;;;2.47;100.00;97464.94;5093669;28;20106;-83
2023/02/23 04:52:46;;;;;;;44.85;11.90;;;;;;;2.50;100.00;97462.19;5095588;28;20111;-82
2023/02/23 04:55:23;;;;;;;25.23;12.10;;;;;;;2.54;100.00;97462.06;5076622;28;20494;-82
2023/02/23 04:58:12;;;;;;;50.42;22.30;;;;;;;2.21;100.00;97420.91;5093709;28;20376;-84
2023/02/23 05:00:38;;;;;;;69.68;29.70;;;;;;;2.32;100.00;97431.97;5077379;28;20522;-75
2023/02/23 05:03:03;;;;;;;47.03;20.20;;;;;;;2.52;100.00;97455.13;5093967;28;20118;-75
2023/02/23 05:05:29;;;;;;;47.03;19.58;;;;;;;2.63;100.00;97472.34;5093809;28;20487;-75
2023/02/23 05:07:54;;;;;;;41.97;18.13;;;;;;;2.57;100.00;97455.81;5093813;28;20028;-75
2023/02/23 05:10:20;;;;;;;43.92;19.35;;;;;;;2.50;100.00;97460.44;5076296;28;20085;-75
2023/02/23 05:12:46;;;;;;;52.38;18.85;;;;;;;2.56;100.00;97470.78;5094278;28;20035;-75
2023/02/23 05:15:11;;;;;;;46.58;19.67;;;;;;;2.66;100.00;97474.00;5093762;28;20032;-75
2023/02/23 05:17:40;;;;;;;56.70;21.55;;;;;;;2.78;100.00;97478.03;5094839;28;20028;-76
2023/02/23 05:20:10;;;;;;;48.45;20.73;;;;;;;2.76;100.00;97474.56;5093335;28;20492;-76
2023/02/23 05:22:36;;;;;;;64.80;24.10;;;;;;;2.87;100.00;97477.72;5077939;28;20024;-75
2023/02/23 05:25:03;;;;;;;51.35;21.17;;;;;;;2.93;100.00;97477.53;5093667;28;20035;-76
2023/02/23 05:27:28;;;;;;;45.33;20.27;;;;;;;2.91;100.00;97482.88;5092538;28;20028;-80
2023/02/23 05:29:54;;;;;;;66.03;28.27;;;;;;;3.01;100.00;97478.16;5075684;28;20400;-80
2023/02/23 05:32:19;;;;;;;130.50;39.53;;;;;;;2.97;100.00;97468.59;5075487;28;20031;-82
2023/02/23 05:34:45;;;;;;;57.08;22.42;;;;;;;3.01;100.00;97476.38;5075992;28;20415;-83
2023/02/23 05:37:10;;;;;;;42.25;18.45;;;;;;;3.06;100.00;97481.50;5092751;28;20028;-81
2023/02/23 05:39:36;;;;;;;39.95;15.75;;;;;;;3.13;100.00;97485.66;5075715;28;20032;-83
2023/02/23 05:42:01;;;;;;;33.78;12.98;;;;;;;3.16;100.00;97475.00;5075877;28;20028;-82
2023/02/23 05:44:27;;;;;;;31.17;13.43;;;;;;;3.48;100.00;97501.16;5076009;28;20028;-82
2023/02/23 05:46:53;;;;;;;46.83;21.13;;;;;;;3.67;100.00;97499.59;5092628;28;20043;-83
2023/02/23 05:49:18;;;;;;;45.33;19.77;;;;;;;3.83;100.00;97490.22;5092446;28;20476;-81
2023/02/23 05:51:44;;;;;;;38.75;18.92;;;;;;;3.92;100.00;97482.84;5092069;28;20424;-83
2023/02/23 05:54:10;;;;;;;47.38;20.65;;;;;;;3.98;100.00;97487.91;5075418;28;20034;-82
2023/02/23 05:56:35;;;;;;;70.60;26.30;;;;;;;3.93;100.00;97489.88;5092631;28;20028;-81
2023/02/23 05:59:03;;;;;;;123.72;48.55;;;;;;;3.92;100.00;97494.31;5075170;28;20093;-82
2023/02/23 06:01:29;;;;;;;107.65;46.30;;;;;;;4.70;100.00;97490.41;5091944;28;20446;-82
2023/02/23 06:03:55;;;;;;;94.80;43.00;;;;;;;5.43;100.00;97476.78;5075411;28;20052;-82
2023/02/23 06:06:22;;;;;;;107.25;49.80;;;;;;;6.09;100.00;97466.81;5075242;28;20078;-81
2023/02/23 06:08:48;;;;;;;95.80;40.17;;;;;;;6.65;100.00;97457.03;5075085;28;20024;-81
2023/02/23 06:11:14;;;;;;;77.35;35.40;;;;;;;7.16;100.00;97440.34;5075118;28;20028;-82
2023/02/23 06:13:40;;;;;;;74.10;31.70;;;;;;;8.07;100.00;97439.09;5091632;28;20038;-83
2023/02/23 06:16:07;;;;;;;66.47;29.00;;;;;;;8.39;93.97;97423.19;5075333;28;20156;-82
2023/02/23 06:18:33;;;;;;;61.80;27.30;;;;;;;9.01;88.88;97406.31;5075214;28;20028;-83
2023/02/23 06:20:59;;;;;;;53.58;25.15;;;;;;;9.60;84.11;97413.41;5098280;27;20047;-83
2023/02/23 06:23:26;;;;;;;49.85;24.90;;;;;;;10.48;78.39;97405.28;5115647;27;20023;-82
2023/02/23 06:25:52;;;;;;;51.42;25.50;;;;;;;10.31;75.63;97393.84;5098626;27;20513;-83
2023/02/23 06:28:17;;;;;;;52.88;25.77;;;;;;;11.13;71.59;97387.63;5121081;27;20052;-83
2023/02/23 06:30:43;;;;;;;58.10;27.05;;;;;;;11.32;67.16;97370.19;5114127;27;20110;-84
2023/02/23 06:33:09;;;;;;;57.03;27.45;;;;;;;10.80;71.11;97369.28;5098781;27;20019;-82
2023/02/23 06:35:34;;;;;;;56.08;27.65;;;;;;;11.03;69.83;97357.06;5112457;27;20023;-83
2023/02/23 06:38:00;;;;;;;64.70;30.48;;;;;;;11.37;67.85;97360.03;5103422;27;20047;-81
2023/02/23 06:40:26;;;;;;;57.97;27.67;;;;;;;12.05;64.79;97358.94;5127475;27;20402;-81
2023/02/23 06:42:51;;;;;;;61.00;29.65;;;;;;;12.01;63.67;97344.88;5106265;27;20091;-80
2023/02/23 06:45:20;;;;;;;63.47;31.33;;;;;;;12.27;62.37;97341.22;5132443;27;20032;-82
2023/02/23 06:47:46;;;;;;;59.92;29.75;;;;;;;12.70;60.99;97354.19;5105890;27;20111;-82
2023/02/23 06:50:12;;;;;;;68.07;30.85;;;;;;;13.28;58.78;97356.94;5115073;27;20062;-84
2023/02/23 06:52:38;;;;;;;64.88;30.60;;;;;;;12.45;60.94;97361.34;5115122;27;20438;-81
2023/02/23 06:55:04;;;;;;;63.85;29.02;;;;;;;13.13;58.42;97342.00;5132654;27;20035;-82
2023/02/23 06:57:30;;;;;;;61.90;29.92;;;;;;;13.29;57.64;97344.38;5119169;27;20038;-83
2023/02/23 06:59:55;;;;;;;71.40;30.83;;;;;;;13.39;57.65;97348.91;5098012;27;20023;-83
2023/02/23 07:02:21;;;;;;;90.10;41.55;;;;;;;13.89;56.65;97354.91;5101027;27;20030;-84
2023/02/23 07:04:47;;;;;;;131.30;54.22;;;;;;;14.08;55.48;97328.28;5106573;27;20119;-84
2023/02/23 07:07:13;;;;;;;249.15;84.50;;;;;;;13.56;57.57;97339.56;5097878;27;20056;-82
2023/02/23 07:09:39;;;;;;;196.95;68.55;;;;;;;13.15;60.04;97340.03;5127309;27;20023;-81
2023/02/23 07:12:05;;;;;;;120.20;47.92;;;;;;;13.28;60.10;97340.81;5132154;27;20500;-83
2023/02/23 07:14:32;;;;;;;76.88;35.47;;;;;;;13.60;59.23;97340.19;5108698;27;20098;-81
2023/02/23 07:16:57;;;;;;;89.75;39.35;;;;;;;13.45;60.19;97329.63;5125420;27;20565;-82
2023/02/23 07:19:23;;;;;;;83.55;36.55;;;;;;;13.40;61.91;97345.25;5097497;27;20114;-81
2023/02/23 07:21:49;;;;;;;59.35;29.35;;;;;;;13.71;61.41;97342.88;5111176;27;20039;-82
2023/02/23 07:24:14;;;;;;;48.58;23.88;;;;;;;13.41;63.05;97343.44;5089288;27;20114;-83
2023/02/23 07:26:42;;;;;;;40.35;20.60;;;;;;;13.73;63.71;97338.25;5114323;27;20033;-81
2023/02/23 07:29:09;;;;;;;48.17;23.45;;;;;;;14.05;61.55;97350.03;5149627;27;20067;-83
2023/02/23 07:31:41;;;;;;;52.63;22.83;;;;;;;14.75;58.34;97342.53;5125920;27;20034;-84
2023/02/23 07:34:07;;;;;;;;;;;;;;;15.12;56.73;97334.97;5140913;27;20080;-81
2023/02/23 07:36:33;;;;;;;44.10;22.80;;;;;;;15.34;55.68;97336.72;5113904;27;19915;-81
2023/02/23 07:38:59;;;;;;;42.95;23.25;;;;;;;15.66;54.77;97324.94;5130820;27;20015;-80
2023/02/23 07:41:24;;;;;;;47.88;24.35;;;;;;;16.28;52.94;97322.16;5097872;27;20436;-80
2023/02/23 07:43:50;;;;;;;46.30;22.20;;;;;;;16.67;51.41;97306.94;5117836;27;20011;-81
2023/02/23 07:46:16;;;;;;;39.47;22.20;;;;;;;17.04;50.69;97306.34;5121814;27;20493;-81
2023/02/23 07:48:45;;;;;;;39.63;21.48;;;;;;;17.12;49.80;97301.94;5097028;27;20454;-81
2023/02/23 07:51:12;;;;;;;42.78;21.55;;;;;;;17.42;49.17;97308.16;5105361;27;20026;-81
2023/02/23 07:53:39;;;;;;;40.30;21.02;;;;;;;17.84;48.08;97296.91;5105232;27;20023;-81
2023/02/23 07:56:05;;;;;;;41.80;21.92;;;;;;;18.05;47.39;97290.44;5097142;28;20057;-81
2023/02/23 07:58:31;;;;;;;43.33;20.52;;;;;;;18.30;46.56;97287.09;5147973;27;20031;-82
2023/02/23 08:00:56;;;;;;;37.22;19.52;;;;;;;18.89;45.92;97292.03;5100320;27;20023;-82
2023/02/23 08:03:22;;;;;;;46.22;19.17;;;;;;;19.11;45.46;97279.91;5096410;27;20042;-82
2023/02/23 08:05:48;;;;;;;33.25;17.27;;;;;;;19.55;44.73;97281.72;5113561;28;20056;-82
2023/02/23 08:08:13;;;;;;;36.67;17.90;;;;;;;19.24;44.98;97283.09;5123369;27;20410;-81
2023/02/23 08:10:39;;;;;;;33.22;18.23;;;;;;;18.85;45.80;97279.81;5111373;28;20038;-82
2023/02/23 08:13:05;;;;;;;36.53;18.92;;;;;;;19.42;44.59;97264.97;5110266;28;20023;-81
2023/02/23 08:15:30;;;;;;;33.83;17.10;;;;;;;18.84;45.50;97272.69;5096520;28;20131;-82
2023/02/23 08:17:56;;;;;;;39.30;20.52;;;;;;;18.35;46.31;97277.50;5113720;28;20035;-82
2023/02/23 08:20:22;;;;;;;33.63;16.83;;;;;;;17.82;47.73;97273.69;5120839;28;20123;-83
2023/02/23 08:22:55;;;;;;;30.23;16.42;;;;;;;17.97;47.69;97284.91;5124768;28;20084;-81
2023/02/23 08:25:21;;;;;;;45.60;25.02;;;;;;;18.01;47.72;97287.19;5138783;27;20139;-81
2023/02/23 08:27:46;;;;;;;37.17;16.40;;;;;;;16.87;50.33;97288.94;5104922;28;20562;-81
2023/02/23 08:30:13;;;;;;;33.75;17.10;;;;;;;17.58;49.50;97308.47;5112845;28;20033;-82
2023/02/23 08:32:39;;;;;;;27.27;15.38;;;;;;;18.87;47.35;97319.31;5096212;28;20425;-81
2023/02/23 08:35:06;;;;;;;30.58;16.85;;;;;;;19.68;45.21;97303.88;5118574;28;20030;-81
2023/02/23 08:37:32;;;;;;;26.55;15.77;;;;;;;20.28;44.13;97309.41;5138980;27;20026;-81
2023/02/23 08:39:59;;;;;;;25.13;14.45;;;;;;;20.73;43.38;97298.25;5109303;28;20387;-81
2023/02/23 08:42:25;;;;;;;24.70;13.43;;;;;;;19.89;44.40;97276.38;5096274;28;20027;-81
2023/02/23 08:44:51;;;;;;;18.58;11.40;;;;;;;19.06;45.76;97284.94;5113319;28;20084;-80
2023/02/23 08:47:22;;;;;;;19.45;11.80;;;;;;;19.78;44.63;97284.78;5110861;28;20027;-81
2023/02/23 08:49:53;;;;;;;26.55;11.52;;;;;;;19.84;44.66;97279.53;5164924;27;20030;-81
2023/02/23 08:52:19;;;;;;;25.10;12.70;;;;;;;20.82;43.00;97286.41;5098503;28;20513;-80
2023/02/23 08:54:47;;;;;;;18.58;11.00;;;;;;;21.34;42.21;97293.34;5114792;28;20023;-81
2023/02/23 08:57:13;;;;;;;19.90;12.13;;;;;;;22.12;40.44;97289.09;5133335;27;20518;-79
2023/02/23 08:59:40;;;;;;;22.13;13.15;;;;;;;22.69;39.74;97291.69;5121840;27;20118;-80
2023/02/23 09:02:07;;;;;;;25.40;11.88;;;;;;;23.27;38.41;97291.22;5098310;27;20045;-80
2023/02/23 09:04:34;;;;;;;22.23;11.18;;;;;;;23.36;38.33;97289.28;5100421;27;20409;-81
2023/02/23 09:07:00;;;;;;;21.95;11.25;;;;;;;23.73;37.35;97283.91;5108578;27;20038;-80
2023/02/23 09:09:26;;;;;;;21.13;11.90;;;;;;;23.14;38.10;97280.88;5100356;27;20083;-81
2023/02/23 09:11:52;;;;;;;18.80;10.27;;;;;;;22.32;39.03;97254.16;5117160;27;20105;-81
2023/02/23 09:14:18;;;;;;;21.42;8.55;;;;;;;23.05;38.06;97281.97;5103316;27;20031;-81
2023/02/23 09:16:43;;;;;;;16.73;8.70;;;;;;;23.22;37.74;97259.00;5101072;27;20023;-82
2023/02/23 09:19:09;;;;;;;16.67;8.55;;;;;;;22.61;38.25;97253.53;5151496;27;20054;-80
2023/02/23 09:21:35;;;;;;;15.38;7.75;;;;;;;23.48;37.39;97263.28;5116658;27;20051;-79
2023/02/23 09:24:01;;;;;;;12.35;7.75;;;;;;;23.70;37.04;97260.56;5134974;27;20513;-80
2023/02/23 09:26:28;;;;;;;17.23;7.82;;;;;;;24.47;35.97;97274.84;5116431;27;20033;-83
2023/02/23 09:28:54;;;;;;;15.38;7.53;;;;;;;24.59;35.61;97265.13;5099724;27;20023;-81
2023/02/23 09:31:22;;;;;;;10.63;7.05;;;;;;;24.73;35.62;97255.22;5135015;27;20023;-79
2023/02/23 09:33:48;;;;;;;11.68;6.75;;;;;;;24.48;35.56;97256.56;5116525;27;20038;-78
2023/02/23 09:36:15;;;;;;;13.25;7.43;;;;;;;24.17;35.53;97235.72;5168184;27;20463;-78
2023/02/23 09:38:42;;;;;;;16.70;6.90;;;;;;;24.87;35.10;97259.84;5133239;27;20042;-78
2023/02/23 09:41:29;;;;;;;14.63;6.50;;;;;;;23.28;36.56;97212.91;5131996;27;20027;-77
2023/02/23 09:44:06;;;;;;;10.40;7.05;;;;;;;22.64;38.10;97234.91;5134521;27;20437;-77
2023/02/23 09:47:04;;;;;;;10.80;6.53;;;;;;;23.16;37.25;97246.06;5134120;27;20023;-75
2023/02/23 09:49:37;;;;;;;9.55;6.05;;;;;;;24.04;36.23;97254.59;5151356;27;20054;-77
2023/02/23 09:52:04;;;;;;;11.70;7.43;;;;;;;22.81;37.37;97216.63;5133125;27;20023;-77
2023/02/23 09:54:32;;;;;;;10.63;6.75;;;;;;;23.74;37.18;97250.97;5119697;27;20034;-77
2023/02/23 09:57:02;;;;;;;20.75;7.07;;;;;;;24.60;35.80;97249.56;5115844;27;20023;-77
2023/02/23 09:59:28;;;;;;;9.55;6.43;;;;;;;25.00;34.76;97249.06;5128802;27;20023;-78
2023/02/23 10:02:07;;;;;;;10.80;6.47;;;;;;;25.98;33.96;97262.09;5132654;27;20082;-78
2023/02/23 10:04:55;;;;;;;15.38;7.45;;;;;;;26.04;33.49;97253.94;5119341;27;20031;-77
2023/02/23 10:07:42;;;;;;;10.60;6.90;;;;;;;26.15;33.30;97252.53;5115695;27;20026;-77
2023/02/23 10:10:13;;;;;;;12.63;6.38;;;;;;;25.01;34.77;97231.59;5115564;27;20025;-77
2023/02/23 10:13:01;;;;;;;14.35;7.07;;;;;;;25.47;34.34;97239.47;5132060;27;20030;-78
2023/02/23 10:15:32;;;;;;;16.08;9.70;;;;;;;25.16;34.19;97232.38;5133128;27;20049;-78
2023/02/23 10:18:02;;;;;;;9.50;6.50;;;;;;;26.77;32.65;97260.75;5132396;27;20486;-79
2023/02/23 10:21:04;;;;;;;10.10;6.35;;;;;;;26.60;32.63;97242.94;5133904;27;20118;-80
2023/02/23 10:23:50;;;;;;;15.63;6.75;;;;;;;27.06;32.23;97241.28;5123858;27;20079;-80
2023/02/23 10:26:19;;;;;;;9.45;6.03;;;;;;;27.09;31.78;97215.31;5127560;27;20398;-81
2023/02/23 10:28:44;;;;;;;8.40;5.13;;;;;;;26.13;32.40;97200.63;5126531;27;20114;-80
2023/02/23 10:31:36;;;;;;;8.65;5.82;;;;;;;25.97;32.83;97194.59;5124236;27;20063;-80
2023/02/23 10:34:04;;;;;;;7.85;5.65;;;;;;;26.54;32.20;97203.44;5130833;27;20532;-80
2023/02/23 10:36:40;;;;;;;9.40;5.38;;;;;;;26.44;32.42;97193.88;5114902;27;20027;-78
2023/02/23 10:39:07;;;;;;;9.50;5.05;;;;;;;25.95;32.42;97185.75;5149594;27;20035;-79
2023/02/23 10:41:36;;;;;;;8.80;5.82;;;;;;;26.06;32.68;97186.03;5133658;27;20109;-81
2023/02/23 10:44:04;;;;;;;10.48;5.80;;;;;;;26.43;32.05;97195.78;5106348;27;20062;-80
2023/02/23 10:46:37;;;;;;;9.48;5.75;;;;;;;26.15;32.42;97173.88;5097919;27;20027;-79
2023/02/23 10:49:03;;;;;;;9.15;5.55;;;;;;;25.87;33.03;97178.53;5112819;27;20403;-80
2023/02/23 10:51:33;;;;;;;8.10;5.78;;;;;;;26.36;32.44;97181.19;5132206;27;20079;-82
2023/02/23 10:54:01;;;;;;;7.03;5.38;;;;;;;26.87;31.87;97179.75;5112026;27;20034;-82
2023/02/23 10:56:33;;;;;;;10.35;6.38;;;;;;;26.82;31.63;97176.81;5099327;27;20023;-80
2023/02/23 10:58:58;;;;;;;10.68;6.40;;;;;;;27.51;31.02;97175.69;5101154;27;20053;-75
2023/02/23 11:01:50;;;;;;;8.07;5.40;;;;;;;25.30;32.93;97123.84;5131851;27;20490;-76
2023/02/23 11:04:28;;;;;;;11.00;5.53;;;;;;;26.44;31.69;97160.97;5130314;27;20125;-75
2023/02/23 11:07:12;;;;;;;11.77;5.90;;;;;;;27.52;30.51;97186.50;5115344;27;20027;-75
2023/02/23 11:09:39;;;;;;;6.90;4.93;;;;;;;27.00;31.07;97157.00;5125793;27;20030;-75
2023/02/23 11:12:22;;;;;;;11.13;6.03;;;;;;;26.70;31.33;97158.34;5112098;27;20084;-75
2023/02/23 11:14:49;;;;;;;8.18;5.32;;;;;;;26.54;31.76;97151.31;5116233;27;20126;-75
2023/02/23 11:17:27;;;;;;;8.10;5.40;;;;;;;27.12;31.25;97155.31;5115917;27;20472;-74
2023/02/23 11:20:17;;;;;;;8.25;6.13;;;;;;;27.60;30.71;97158.78;5114573;27;20463;-75
2023/02/23 11:22:43;;;;;;;12.63;7.88;;;;;;;27.50;30.74;97149.28;5117137;27;20459;-75
2023/02/23 11:25:16;;;;;;;11.45;5.97;;;;;;;28.37;29.68;97174.59;5122572;27;20060;-74
2023/02/23 11:27:50;;;;;;;9.65;5.55;;;;;;;27.53;30.56;97133.22;5117139;27;20045;-75
2023/02/23 11:30:19;;;;;;;11.20;5.25;;;;;;;27.63;30.72;97143.75;5142306;27;20126;-75
2023/02/23 11:32:52;;;;;;;7.45;5.28;;;;;;;26.82;31.17;97110.91;5105125;27;20060;-75
2023/02/23 11:35:20;;;;;;;9.35;5.78;;;;;;;27.26;31.10;97132.31;5124304;27;20024;-75
2023/02/23 11:37:47;;;;;;;10.90;5.63;;;;;;;26.76;31.18;97113.59;5131138;27;20091;-74
2023/02/23 11:40:24;;;;;;;11.30;5.07;;;;;;;27.53;30.69;97135.97;5105811;27;20067;-75
2023/02/23 11:42:54;;;;;;;7.80;4.82;;;;;;;27.17;30.78;97130.81;5127913;27;20027;-73
2023/02/23 11:45:22;;;;;;;8.77;5.50;;;;;;;25.41;33.08;97084.97;5132152;27;20031;-74
2023/02/23 11:47:50;;;;;;;9.75;5.45;;;;;;;25.01;34.20;97102.94;5132164;27;20079;-75
2023/02/23 11:50:28;;;;;;;9.65;5.38;;;;;;;23.98;35.04;97072.25;5127773;27;20501;-74
2023/02/23 11:53:04;;;;;;;12.65;6.13;;;;;;;23.38;35.75;97074.28;5120380;27;20121;-74
2023/02/23 11:55:31;;;;;;;9.88;5.65;;;;;;;24.68;34.51;97109.94;5122691;27;20112;-74
2023/02/23 11:58:26;;;;;;;9.25;6.03;;;;;;;24.99;33.54;97109.66;5105506;27;20023;-75
2023/02/23 12:01:00;;;;;;;10.02;6.00;;;;;;;24.07;35.31;97097.59;5142616;27;20031;-74
2023/02/23 12:03:28;;;;;;;9.68;5.75;;;;;;;24.95;33.71;97103.72;5109663;27;20114;-74
2023/02/23 12:05:56;;;;;;;11.75;6.15;;;;;;;23.23;36.23;97077.81;5107598;28;20027;-74
2023/02/23 12:08:40;;;;;;;10.63;5.97;;;;;;;22.57;37.37;97086.72;5122619;27;20023;-74
2023/02/23 12:11:09;;;;;;;9.30;5.30;;;;;;;23.00;36.94;97090.66;5122777;27;20031;-75
2023/02/23 12:13:39;;;;;;;9.88;5.90;;;;;;;22.08;38.24;97085.28;5131230;27;20445;-74
2023/02/23 12:16:22;;;;;;;9.07;5.63;;;;;;;20.89;40.11;97053.56;5122378;28;20513;-75
2023/02/23 12:19:01;;;;;;;11.20;6.03;;;;;;;20.19;41.57;97063.16;5115295;28;20026;-75
2023/02/23 12:21:52;;;;;;;11.13;5.43;;;;;;;19.36;43.03;97062.97;5126430;28;20422;-75
2023/02/23 12:24:33;;;;;;;12.10;6.72;;;;;;;18.90;44.75;97085.03;5132283;27;20410;-75
2023/02/23 12:27:21;;;;;;;15.45;7.03;;;;;;;19.16;44.77;97101.34;5125076;28;20118;-75
2023/02/23 12:29:58;;;;;;;11.57;7.25;;;;;;;19.76;44.37;97126.66;5113932;28;20031;-74
2023/02/23 12:32:28;;;;;;;18.02;7.00;;;;;;;20.01;42.99;97123.88;5132414;28;20026;-75
2023/02/23 12:34:58;;;;;;;13.18;6.82;;;;;;;19.94;42.95;97117.41;5122202;28;20023;-76
2023/02/23 12:37:35;;;;;;;17.90;10.63;;;;;;;20.06;42.91;97122.56;5115772;27;20035;-77
2023/02/23 12:40:26;;;;;;;12.05;6.70;;;;;;;21.37;41.17;97161.53;5134940;27;20045;-75
2023/02/23 12:42:58;;;;;;;11.77;7.07;;;;;;;22.42;39.68;97170.28;5118107;27;20168;-74
2023/02/23 12:45:28;;;;;;;14.73;7.40;;;;;;;22.46;39.36;97162.59;5143277;27;20551;-73
2023/02/23 12:48:22;;;;;;;12.30;6.88;;;;;;;22.71;38.94;97169.63;5117432;27;20041;-76
2023/02/23 12:50:52;;;;;;;14.55;8.25;;;;;;;21.94;39.65;97144.06;5131614;27;20077;-75
2023/02/23 12:53:33;;;;;;;19.58;7.78;;;;;;;22.18;39.93;97167.66;5114223;27;20019;-75